createdAt,value
2019-04-01T00:02:37.472Z,83.97
2019-04-01T00:07:41.530Z,84.84
2019-04-01T00:12:45.565Z,85.00
2019-04-01T00:17:49.895Z,85.64
2019-04-01T00:22:54.266Z,86.01
2019-04-01T00:27:58.412Z,86.35
2019-04-01T00:33:02.487Z,86.79
2019-04-01T00:38:06.532Z,86.91
2019-04-01T00:43:11.076Z,88.45
2019-04-01T00:48:15.106Z,89.09
2019-04-01T00:53:19.431Z,90.21
2019-04-01T00:58:23.743Z,90.10
2019-04-01T01:03:27.792Z,90.62
2019-04-01T01:08:31.922Z,90.02
2019-04-01T01:13:36.846Z,90.19
2019-04-01T01:18:40.853Z,90.30
2019-04-01T01:23:44.900Z,90.50
2019-04-01T01:28:48.934Z,91.24
2019-04-01T01:33:53.026Z,91.24
2019-04-01T01:38:57.055Z,91.64
2019-04-01T01:44:01.225Z,91.73
2019-04-01T01:49:05.259Z,92.57
2019-04-01T01:54:09.612Z,92.97
2019-04-01T01:59:13.868Z,93.53
2019-04-01T02:04:17.910Z,93.88
2019-04-01T02:09:21.976Z,94.33
2019-04-01T02:14:26.052Z,94.63
2019-04-01T02:19:30.054Z,95.68
2019-04-01T02:24:34.134Z,95.70
2019-04-01T02:29:38.186Z,95.94
2019-04-01T02:34:42.236Z,96.04
2019-04-01T02:39:46.271Z,96.62
2019-04-01T02:44:50.353Z,97.37
2019-04-01T02:49:54.334Z,98.00
2019-04-01T02:54:58.352Z,98.11
2019-04-01T03:00:02.441Z,98.51
2019-04-01T03:05:06.479Z,99.44
2019-04-01T03:10:11.249Z,99.90
2019-04-01T03:15:15.245Z,99.37
2019-04-01T03:20:19.289Z,99.52
2019-04-01T03:25:23.666Z,99.81
2019-04-01T03:30:27.726Z,100.00
2019-04-01T03:35:31.708Z,100.00
2019-04-01T03:40:35.784Z,100.00
2019-04-01T03:45:39.809Z,100.00
2019-04-01T03:50:43.857Z,100.00
2019-04-01T03:55:47.952Z,100.00
2019-04-01T04:00:51.980Z,100.00
2019-04-01T04:05:56.019Z,100.00
2019-04-01T04:11:00.175Z,100.00
2019-04-01T04:16:04.267Z,100.00
2019-04-01T04:21:08.329Z,100.00
2019-04-01T04:26:12.384Z,100.00
2019-04-01T04:31:16.398Z,100.00
2019-04-01T04:36:20.517Z,100.00
2019-04-01T04:41:24.796Z,100.00
2019-04-01T04:46:28.807Z,100.00
2019-04-01T04:51:32.993Z,100.00
2019-04-01T04:56:37.048Z,100.00
2019-04-01T05:01:41.187Z,100.00
2019-04-01T05:06:45.584Z,100.00
2019-04-01T05:11:49.717Z,100.00
2019-04-01T05:16:53.660Z,100.00
2019-04-01T05:21:58.604Z,100.00
2019-04-01T05:27:04.024Z,100.00
2019-04-01T05:32:09.633Z,100.00
2019-04-01T05:37:13.679Z,100.00
2019-04-01T05:42:17.799Z,99.28
2019-04-01T05:47:21.952Z,88.59
2019-04-01T05:52:25.946Z,60.67
2019-04-01T05:57:29.930Z,67.94
2019-04-01T06:02:34.748Z,69.69
2019-04-01T06:07:40.321Z,45.12
2019-04-01T06:12:45.227Z,44.87
2019-04-01T06:17:49.463Z,55.83
2019-04-01T06:22:53.508Z,64.25
2019-04-01T06:27:57.656Z,67.93
2019-04-01T06:33:01.902Z,70.01
2019-04-01T06:38:06.391Z,70.97
2019-04-01T06:43:10.564Z,71.17
2019-04-01T06:48:16.092Z,70.98
2019-04-01T06:53:20.330Z,69.91
2019-04-01T06:58:26.371Z,70.00
2019-04-01T07:03:30.649Z,67.68
2019-04-01T07:08:34.962Z,67.08
2019-04-01T07:13:40.195Z,66.89
2019-04-01T07:18:44.841Z,63.71
2019-04-01T07:23:48.983Z,60.90
2019-04-01T07:28:53.081Z,61.18
2019-04-01T07:33:57.516Z,59.93
2019-04-01T07:39:01.569Z,58.64
2019-04-01T07:44:05.549Z,57.57
2019-04-01T07:49:09.769Z,56.96
2019-04-01T07:54:14.060Z,55.50
2019-04-01T07:59:18.015Z,54.56
2019-04-01T08:04:22.184Z,53.98
2019-04-01T08:09:26.364Z,54.31
2019-04-01T08:14:30.404Z,52.39
2019-04-01T08:19:34.435Z,52.37
2019-04-01T08:24:38.524Z,51.27
2019-04-01T08:29:42.609Z,50.94
2019-04-01T08:34:46.830Z,50.12
2019-04-01T08:39:50.822Z,49.97
2019-04-01T08:44:54.868Z,49.89
2019-04-01T08:49:58.951Z,47.98
2019-04-01T08:55:03.311Z,46.45
2019-04-01T09:00:08.404Z,46.63
2019-04-01T09:05:12.659Z,45.62
2019-04-01T09:10:16.827Z,46.34
2019-04-01T09:15:21.232Z,45.22
2019-04-01T09:20:25.326Z,43.87
2019-04-01T09:25:29.387Z,43.29
2019-04-01T09:30:33.793Z,42.34
2019-04-01T09:35:40.888Z,41.99
2019-04-01T09:40:43.852Z,38.66
2019-04-01T09:45:47.943Z,34.28
2019-04-01T09:50:51.971Z,33.12
2019-04-01T09:55:56.086Z,30.52
2019-04-01T10:01:00.415Z,29.01
2019-04-01T10:06:04.748Z,29.04
2019-04-01T10:11:12.350Z,30.40
2019-04-01T10:16:14.645Z,28.37
2019-04-01T10:21:18.681Z,31.69
2019-04-01T10:26:22.800Z,31.05
2019-04-01T10:31:26.801Z,33.70
2019-04-01T10:36:30.952Z,29.25
2019-04-01T10:41:35.422Z,31.38
2019-04-01T10:46:40.871Z,32.71
2019-04-01T10:51:45.060Z,33.53
2019-04-01T10:56:49.130Z,32.19
2019-04-01T11:01:53.215Z,30.93
2019-04-01T11:06:57.532Z,32.39
2019-04-01T11:12:01.612Z,32.76
2019-04-01T11:17:05.663Z,30.52
2019-04-01T11:22:09.736Z,31.41
2019-04-01T11:27:13.806Z,32.76
2019-04-01T11:32:17.823Z,32.14
2019-04-01T11:37:21.867Z,32.19
2019-04-01T11:42:25.957Z,32.18
2019-04-01T11:47:29.978Z,33.24
2019-04-01T11:52:34.130Z,33.08
2019-04-01T11:57:38.187Z,33.28
2019-04-01T12:02:42.279Z,31.58
2019-04-01T12:07:46.340Z,32.77
2019-04-01T12:12:50.439Z,31.94
2019-04-01T12:17:54.568Z,33.20
2019-04-01T12:22:58.590Z,34.31
2019-04-01T12:28:02.631Z,32.40
2019-04-01T12:33:06.721Z,32.38
2019-04-01T12:38:10.807Z,32.11
2019-04-01T12:43:15.362Z,32.84
2019-04-01T12:48:20.266Z,33.12
2019-04-01T12:53:24.333Z,32.27
2019-04-01T12:58:28.456Z,32.81
2019-04-01T13:03:32.536Z,31.20
2019-04-01T13:08:36.649Z,33.58
2019-04-01T13:13:41.055Z,33.08
2019-04-01T13:18:45.093Z,33.12
2019-04-01T13:23:49.185Z,32.30
2019-04-01T13:28:54.957Z,33.90
2019-04-01T13:33:59.073Z,33.44
2019-04-01T13:39:04.271Z,32.97
2019-04-01T13:44:09.019Z,32.59
2019-04-01T13:49:13.218Z,30.12
2019-04-01T13:54:17.275Z,29.62
2019-04-01T13:59:21.383Z,28.94
2019-04-01T14:04:25.453Z,28.41
2019-04-01T14:09:30.997Z,29.89
2019-04-01T14:14:35.010Z,30.93
2019-04-01T14:19:39.238Z,30.18
2019-04-01T14:24:45.244Z,29.02
2019-04-01T14:29:49.304Z,28.41
2019-04-01T14:34:53.444Z,28.49
2019-04-01T14:39:57.513Z,28.56
2019-04-01T14:45:02.066Z,28.99
2019-04-01T14:50:07.857Z,28.12
2019-04-01T14:55:12.521Z,28.89
2019-04-01T15:00:17.953Z,28.46
2019-04-01T15:05:22.237Z,28.26
2019-04-01T15:10:26.335Z,28.92
2019-04-01T15:15:30.422Z,28.50
2019-04-01T15:20:34.440Z,29.37
2019-04-01T15:25:38.455Z,28.61
2019-04-01T15:30:42.518Z,28.47
2019-04-01T15:35:46.634Z,28.77
2019-04-01T15:40:51.312Z,29.07
2019-04-01T15:45:55.408Z,29.88
2019-04-01T15:50:59.517Z,29.91
2019-04-01T15:56:03.646Z,28.78
2019-04-01T16:01:07.838Z,28.97
2019-04-01T16:06:11.875Z,28.71
2019-04-01T16:11:16.091Z,30.16
2019-04-01T16:16:20.080Z,30.06
2019-04-01T16:21:24.484Z,29.66
2019-04-01T16:26:28.624Z,31.56
2019-04-01T16:31:32.620Z,30.99
2019-04-01T16:36:36.896Z,31.52
2019-04-01T16:41:40.970Z,32.04
2019-04-01T16:46:45.058Z,32.31
2019-04-01T16:51:49.395Z,33.55
2019-04-01T16:56:53.416Z,34.83
2019-04-01T17:01:57.918Z,33.68
2019-04-01T17:07:02.088Z,34.70
2019-04-01T17:12:06.441Z,35.96
2019-04-01T17:17:10.547Z,36.71
2019-04-01T17:22:14.657Z,37.25
2019-04-01T17:27:18.693Z,36.75
2019-04-01T17:32:23.360Z,37.94
2019-04-01T17:37:27.868Z,37.37
2019-04-01T17:42:31.962Z,37.57
2019-04-01T17:47:36.126Z,37.50
2019-04-01T17:52:40.152Z,39.94
2019-04-01T17:57:44.265Z,39.18
2019-04-01T18:02:48.535Z,39.18
2019-04-01T18:07:52.653Z,39.63
2019-04-01T18:12:57.405Z,40.24
2019-04-01T18:18:02.490Z,41.16
2019-04-01T18:23:06.609Z,42.65
2019-04-01T18:28:12.957Z,41.41
2019-04-01T18:33:19.827Z,41.62
2019-04-01T18:38:23.274Z,41.89
2019-04-01T18:43:28.236Z,40.79
2019-04-01T18:48:33.101Z,41.03
2019-04-01T18:53:37.181Z,42.01
2019-04-01T18:58:42.459Z,41.16
2019-04-01T19:03:46.941Z,41.03
2019-04-01T19:08:52.553Z,41.67
2019-04-01T19:13:56.787Z,42.24
2019-04-01T19:19:04.741Z,42.45
2019-04-01T19:24:10.414Z,42.52
2019-04-01T19:29:16.040Z,42.58
2019-04-01T19:34:21.985Z,42.73
2019-04-01T19:39:30.536Z,42.90
2019-04-01T19:44:35.726Z,42.65
2019-04-01T19:49:41.603Z,42.86
2019-04-01T19:54:45.749Z,42.91
2019-04-01T19:59:49.989Z,43.78
2019-04-01T20:04:54.097Z,43.70
2019-04-01T20:09:58.907Z,43.61
2019-04-01T20:15:04.104Z,44.29
2019-04-01T20:20:09.878Z,43.94
2019-04-01T20:25:14.197Z,44.41
2019-04-01T20:30:18.597Z,44.49
2019-04-01T20:35:24.001Z,45.69
2019-04-01T20:40:28.479Z,45.55
2019-04-01T20:45:34.468Z,45.97
2019-04-01T20:50:41.727Z,46.16
2019-04-01T20:55:50.896Z,46.58
2019-04-01T21:00:58.654Z,46.48
2019-04-01T21:06:04.697Z,46.36
2019-04-01T21:11:12.105Z,46.96
2019-04-01T21:16:19.080Z,48.10
2019-04-01T21:21:27.869Z,48.15
2019-04-01T21:26:35.341Z,48.86
2019-04-01T21:31:44.203Z,48.85
2019-04-01T21:36:49.038Z,49.24
2019-04-01T21:41:54.052Z,49.47
2019-04-01T21:46:58.359Z,50.37
2019-04-01T21:52:03.470Z,50.92
2019-04-01T21:57:08.084Z,50.60
2019-04-01T22:02:12.130Z,51.39
2019-04-01T22:07:16.195Z,51.46
2019-04-01T22:12:20.247Z,51.74
2019-04-01T22:17:24.272Z,51.47
2019-04-01T22:22:28.320Z,51.59
2019-04-01T22:27:32.350Z,52.43
2019-04-01T22:32:36.415Z,52.90
2019-04-01T22:37:41.090Z,53.48
2019-04-01T22:42:45.249Z,53.84
2019-04-01T22:47:49.354Z,54.77
2019-04-01T22:52:53.914Z,54.56
2019-04-01T22:57:57.944Z,54.09
2019-04-01T23:03:02.217Z,55.21
2019-04-01T23:08:06.258Z,54.76
2019-04-01T23:13:10.267Z,55.88
2019-04-01T23:18:14.304Z,54.91
2019-04-01T23:23:18.351Z,55.09
2019-04-01T23:28:23.250Z,55.33
2019-04-01T23:33:28.173Z,54.79
2019-04-01T23:38:32.529Z,54.68
2019-04-01T23:43:37.576Z,54.63
2019-04-01T23:48:42.271Z,54.82
2019-04-01T23:53:46.803Z,53.96
2019-04-01T23:58:51.199Z,53.49
